createdAt,value
2019-02-25T00:00:15.353Z,78.90
2019-02-25T00:02:59.943Z,79.80
2019-02-25T00:05:45.316Z,81.00
2019-02-25T00:08:30.597Z,81.20
2019-02-25T00:11:15.701Z,80.50
2019-02-25T00:14:01.062Z,81.30
2019-02-25T00:16:45.798Z,81.20
2019-02-25T00:19:30.565Z,79.80
2019-02-25T00:22:15.600Z,79.00
2019-02-25T00:25:01.263Z,78.90
2019-02-25T00:27:46.311Z,78.50
2019-02-25T00:30:31.290Z,78.60
2019-02-25T00:33:16.447Z,79.20
2019-02-25T00:36:01.129Z,80.60
2019-02-25T00:38:46.567Z,78.10
2019-02-25T00:41:31.859Z,79.90
2019-02-25T00:44:16.678Z,80.60
2019-02-25T00:47:01.553Z,81.30
2019-02-25T00:49:47.264Z,82.40
2019-02-25T00:52:32.607Z,79.60
2019-02-25T00:55:17.859Z,78.60
2019-02-25T00:58:03.266Z,77.80
2019-02-25T01:00:50.041Z,78.00
2019-02-25T01:03:35.388Z,78.20
2019-02-25T01:06:20.069Z,78.40
2019-02-25T01:09:05.904Z,78.70
2019-02-25T01:11:50.563Z,79.80
2019-02-25T01:14:35.809Z,81.00
2019-02-25T01:17:21.054Z,81.70
2019-02-25T01:20:09.100Z,82.40
2019-02-25T01:22:54.296Z,82.20
2019-02-25T01:25:39.348Z,83.70
2019-02-25T01:28:24.587Z,84.00
2019-02-25T01:31:09.628Z,84.50
2019-02-25T01:33:54.403Z,84.30
2019-02-25T01:36:39.353Z,85.30
2019-02-25T01:39:24.146Z,86.80
2019-02-25T01:42:11.118Z,87.10
2019-02-25T01:44:56.247Z,88.50
2019-02-25T01:47:41.421Z,88.10
2019-02-25T01:50:26.669Z,88.70
2019-02-25T01:53:12.245Z,89.40
2019-02-25T01:55:57.186Z,88.60
2019-02-25T01:58:42.101Z,88.90
2019-02-25T02:01:26.883Z,89.30
2019-02-25T02:04:11.816Z,88.90
2019-02-25T02:06:57.032Z,89.50
2019-02-25T02:09:42.186Z,88.80
2019-02-25T02:12:27.350Z,89.40
2019-02-25T02:15:15.472Z,89.40
2019-02-25T02:18:00.902Z,90.00
2019-02-25T02:20:46.018Z,90.40
2019-02-25T02:23:31.048Z,90.80
2019-02-25T02:26:15.696Z,90.90
2019-02-25T02:29:00.511Z,90.80
2019-02-25T02:31:45.274Z,91.20
2019-02-25T02:34:30.046Z,91.10
2019-02-25T02:37:16.843Z,90.50
2019-02-25T02:40:03.471Z,91.00
2019-02-25T02:42:58.942Z,91.50
2019-02-25T02:45:51.041Z,91.80
2019-02-25T02:48:45.721Z,92.00
2019-02-25T02:51:30.619Z,92.40
2019-02-25T02:54:15.699Z,92.40
2019-02-25T02:57:00.441Z,92.80
2019-02-25T02:59:45.283Z,92.40
2019-02-25T03:02:30.102Z,92.60
2019-02-25T03:05:15.682Z,93.10
2019-02-25T03:08:01.076Z,93.50
2019-02-25T03:10:46.237Z,93.70
2019-02-25T03:13:31.600Z,93.80
2019-02-25T03:16:16.767Z,93.80
2019-02-25T03:19:02.113Z,93.90
2019-02-25T03:21:47.251Z,94.60
2019-02-25T03:24:32.188Z,94.50
2019-02-25T03:27:17.631Z,94.20
2019-02-25T03:30:06.648Z,94.30
2019-02-25T03:32:51.501Z,94.30
2019-02-25T03:35:36.782Z,94.50
2019-02-25T03:38:21.435Z,94.20
2019-02-25T03:41:06.694Z,94.60
2019-02-25T03:43:52.384Z,94.80
2019-02-25T03:46:37.349Z,94.40
2019-02-25T03:49:22.387Z,94.80
2019-02-25T03:52:07.399Z,94.50
2019-02-25T03:54:53.014Z,95.50
2019-02-25T03:57:40.100Z,95.60
2019-02-25T04:00:25.447Z,95.90
2019-02-25T04:03:10.210Z,96.40
2019-02-25T04:05:54.976Z,96.70
2019-02-25T04:08:41.721Z,96.80
2019-02-25T04:11:26.792Z,97.50
2019-02-25T04:14:12.281Z,97.30
2019-02-25T04:16:57.307Z,97.10
2019-02-25T04:19:42.295Z,96.60
2019-02-25T04:22:26.952Z,96.80
2019-02-25T04:25:12.279Z,96.90
2019-02-25T04:27:57.485Z,96.70
2019-02-25T04:30:42.852Z,96.50
2019-02-25T04:33:27.685Z,96.30
2019-02-25T04:36:12.553Z,96.50
2019-02-25T04:38:57.421Z,97.20
2019-02-25T04:41:41.977Z,96.20
2019-02-25T04:44:26.876Z,96.50
2019-02-25T04:47:11.853Z,97.20
2019-02-25T04:49:56.998Z,96.20
2019-02-25T04:52:42.425Z,96.50
2019-02-25T04:55:27.339Z,97.30
2019-02-25T04:58:12.318Z,96.80
2019-02-25T05:00:57.791Z,96.70
2019-02-25T05:03:42.810Z,96.50
2019-02-25T05:06:27.550Z,96.00
2019-02-25T05:09:12.418Z,96.60
2019-02-25T05:11:58.074Z,96.70
2019-02-25T05:14:43.131Z,96.30
2019-02-25T05:17:29.444Z,96.10
2019-02-25T05:20:14.593Z,97.00
2019-02-25T05:22:59.589Z,97.80
2019-02-25T05:25:44.567Z,98.10
2019-02-25T05:28:29.270Z,98.20
2019-02-25T05:31:14.603Z,98.50
2019-02-25T05:33:59.488Z,97.70
2019-02-25T05:36:44.490Z,97.90
2019-02-25T05:39:29.178Z,97.50
2019-02-25T05:42:14.505Z,98.20
2019-02-25T05:44:59.394Z,98.50
2019-02-25T05:47:45.366Z,98.80
2019-02-25T05:50:30.719Z,99.00
2019-02-25T05:53:16.081Z,98.80
2019-02-25T05:56:02.318Z,99.10
2019-02-25T05:58:47.163Z,99.20
2019-02-25T06:01:31.974Z,99.30
2019-02-25T06:04:17.080Z,99.50
2019-02-25T06:07:02.154Z,99.50
2019-02-25T06:09:47.721Z,98.70
2019-02-25T06:12:32.520Z,99.00
2019-02-25T06:15:18.136Z,99.40
2019-02-25T06:18:03.062Z,99.50
2019-02-25T06:20:48.966Z,99.60
2019-02-25T06:23:34.326Z,99.30
2019-02-25T06:26:20.411Z,99.30
2019-02-25T06:29:05.296Z,98.20
2019-02-25T06:31:50.027Z,98.20
2019-02-25T06:34:34.834Z,98.00
2019-02-25T06:37:20.112Z,97.90
2019-02-25T06:40:10.956Z,98.40
2019-02-25T06:42:56.072Z,98.20
2019-02-25T06:45:41.508Z,97.50
2019-02-25T06:48:26.155Z,98.10
2019-02-25T06:51:11.022Z,98.40
2019-02-25T06:53:55.921Z,98.80
2019-02-25T06:56:40.884Z,98.80
2019-02-25T06:59:25.766Z,99.00
2019-02-25T07:02:10.622Z,98.80
2019-02-25T07:04:58.865Z,98.30
2019-02-25T07:07:58.462Z,98.10
2019-02-25T07:10:54.506Z,98.20
2019-02-25T07:13:47.085Z,98.10
2019-02-25T07:16:39.737Z,98.90
2019-02-25T07:19:35.750Z,98.20
2019-02-25T07:22:22.517Z,97.80
2019-02-25T07:25:26.407Z,98.90
2019-02-25T07:28:13.577Z,98.70
2019-02-25T07:31:12.351Z,98.00
2019-02-25T07:34:11.458Z,99.40
2019-02-25T07:37:15.226Z,98.50
2019-02-25T07:40:02.018Z,98.90
2019-02-25T07:43:05.531Z,98.40
2019-02-25T07:45:57.991Z,98.30
2019-02-25T07:48:47.507Z,98.80
2019-02-25T07:51:36.800Z,97.30
2019-02-25T07:54:23.456Z,96.00
2019-02-25T07:57:22.480Z,96.40
2019-02-25T08:00:11.161Z,96.50
2019-02-25T08:03:01.166Z,96.10
2019-02-25T08:06:03.141Z,95.80
2019-02-25T08:09:06.987Z,96.00
2019-02-25T08:11:53.694Z,94.50
2019-02-25T08:14:44.903Z,94.70
2019-02-25T08:17:40.557Z,94.70
2019-02-25T08:20:30.272Z,93.60
2019-02-25T08:23:23.295Z,92.30
2019-02-25T08:26:13.271Z,91.60
2019-02-25T08:29:02.637Z,91.50
2019-02-25T08:31:49.322Z,89.80
2019-02-25T08:34:45.230Z,86.20
2019-02-25T08:37:57.281Z,84.20
2019-02-25T08:40:47.010Z,84.20
2019-02-25T08:43:40.095Z,81.70
2019-02-25T08:46:27.384Z,80.00
2019-02-25T08:49:20.221Z,77.00
2019-02-25T08:52:05.130Z,77.40
2019-02-25T08:54:50.515Z,74.60
2019-02-25T08:57:35.510Z,73.60
2019-02-25T09:00:20.805Z,73.10
2019-02-25T09:03:05.467Z,74.00
2019-02-25T09:05:51.780Z,71.20
2019-02-25T09:08:36.653Z,69.30
2019-02-25T09:11:21.537Z,68.20
2019-02-25T09:14:06.947Z,66.30
2019-02-25T09:16:52.162Z,65.60
2019-02-25T09:19:37.626Z,64.70
2019-02-25T09:22:22.786Z,62.20
2019-02-25T09:25:12.548Z,60.70
2019-02-25T09:27:57.571Z,59.40
2019-02-25T09:30:42.527Z,59.30
2019-02-25T09:33:27.380Z,58.20
2019-02-25T09:36:12.297Z,57.50
2019-02-25T09:38:57.490Z,57.40
2019-02-25T09:41:42.526Z,56.30
2019-02-25T09:44:27.535Z,54.00
2019-02-25T09:47:12.546Z,54.40
2019-02-25T09:49:57.862Z,52.00
2019-02-25T09:52:42.630Z,52.00
2019-02-25T09:55:27.684Z,51.50
2019-02-25T09:58:12.870Z,50.80
2019-02-25T10:00:57.696Z,50.20
2019-02-25T10:03:43.131Z,50.70
2019-02-25T10:06:28.285Z,50.40
2019-02-25T10:09:13.525Z,49.40
2019-02-25T10:11:58.900Z,49.60
2019-02-25T10:14:44.165Z,49.70
2019-02-25T10:17:29.125Z,49.90
2019-02-25T10:20:14.472Z,50.30
2019-02-25T10:22:59.740Z,50.20
2019-02-25T10:25:44.630Z,50.00
2019-02-25T10:28:29.870Z,48.80
2019-02-25T10:31:15.802Z,48.70
2019-02-25T10:34:01.807Z,49.40
2019-02-25T10:36:48.207Z,48.50
2019-02-25T10:39:33.959Z,49.40
2019-02-25T10:42:18.951Z,49.30
2019-02-25T10:45:08.996Z,50.00
2019-02-25T10:47:58.443Z,49.80
2019-02-25T10:50:41.241Z,49.10
2019-02-25T10:53:26.642Z,49.20
2019-02-25T10:56:16.717Z,48.90
2019-02-25T10:59:03.974Z,48.90
2019-02-25T11:01:49.880Z,48.30
2019-02-25T11:04:34.985Z,48.70
2019-02-25T11:07:20.133Z,47.80
2019-02-25T11:10:09.693Z,47.30
2019-02-25T11:12:55.513Z,47.00
2019-02-25T11:15:42.385Z,46.40
2019-02-25T11:18:28.770Z,47.00
2019-02-25T11:21:14.132Z,46.60
2019-02-25T11:23:59.484Z,45.80
2019-02-25T11:26:44.619Z,45.20
2019-02-25T11:29:29.540Z,45.20
2019-02-25T11:32:14.989Z,44.80
2019-02-25T11:35:01.468Z,45.40
2019-02-25T11:37:47.091Z,45.40
2019-02-25T11:40:33.674Z,44.30
2019-02-25T11:43:21.364Z,44.70
2019-02-25T11:46:05.937Z,44.60
2019-02-25T11:48:50.974Z,43.40
2019-02-25T11:51:35.783Z,43.90
2019-02-25T11:54:21.156Z,43.80
2019-02-25T11:57:06.294Z,44.60
2019-02-25T11:59:52.891Z,43.70
2019-02-25T12:02:38.271Z,44.20
2019-02-25T12:05:23.393Z,43.20
2019-02-25T12:08:08.414Z,44.40
2019-02-25T12:10:53.748Z,45.10
2019-02-25T12:13:38.950Z,44.20
2019-02-25T12:16:23.871Z,43.10
2019-02-25T12:19:17.577Z,43.50
2019-02-25T12:21:56.125Z,43.20
2019-02-25T12:24:40.761Z,43.10
2019-02-25T12:27:25.714Z,41.50
2019-02-25T12:30:21.959Z,41.20
2019-02-25T12:33:07.094Z,41.10
2019-02-25T12:35:52.614Z,40.80
2019-02-25T12:38:37.594Z,39.20
2019-02-25T12:41:23.880Z,37.40
2019-02-25T12:44:09.349Z,36.50
2019-02-25T12:46:55.279Z,37.00
2019-02-25T12:49:40.534Z,37.30
2019-02-25T12:52:26.024Z,38.40
2019-02-25T12:55:12.420Z,37.90
2019-02-25T12:57:57.750Z,37.60
2019-02-25T13:00:42.938Z,38.20
2019-02-25T13:03:28.391Z,38.10
2019-02-25T13:06:13.378Z,37.00
2019-02-25T13:08:58.434Z,36.90
2019-02-25T13:11:43.631Z,37.40
2019-02-25T13:14:28.679Z,36.80
2019-02-25T13:17:15.600Z,36.40
2019-02-25T13:20:00.509Z,37.30
2019-02-25T13:22:45.651Z,37.90
2019-02-25T13:25:31.196Z,36.50
2019-02-25T13:28:16.340Z,37.60
2019-02-25T13:31:03.256Z,37.90
2019-02-25T13:33:48.805Z,37.20
2019-02-25T13:36:33.750Z,37.60
2019-02-25T13:39:19.104Z,37.10
2019-02-25T13:42:04.664Z,37.60
2019-02-25T13:44:49.742Z,37.60
2019-02-25T13:47:35.249Z,37.50
2019-02-25T13:50:20.477Z,37.40
2019-02-25T13:53:05.615Z,37.30
2019-02-25T13:55:50.967Z,36.50
2019-02-25T13:58:36.429Z,36.20
2019-02-25T14:01:22.195Z,35.80
2019-02-25T14:04:09.544Z,35.60
2019-02-25T14:06:55.749Z,35.80
2019-02-25T14:09:41.011Z,37.10
2019-02-25T14:12:27.780Z,36.90
2019-02-25T14:15:23.825Z,37.60
2019-02-25T14:18:09.890Z,38.30
2019-02-25T14:20:55.094Z,37.50
2019-02-25T14:23:40.532Z,38.60
2019-02-25T14:26:25.864Z,38.80
2019-02-25T14:29:11.038Z,37.30
2019-02-25T14:31:56.483Z,38.90
2019-02-25T14:34:44.318Z,38.00
2019-02-25T14:37:28.725Z,37.50
2019-02-25T14:40:18.769Z,38.50
2019-02-25T14:43:05.871Z,37.80
2019-02-25T14:45:53.955Z,38.40
2019-02-25T14:48:37.164Z,37.90
2019-02-25T14:51:23.845Z,38.60
2019-02-25T14:54:08.879Z,39.40
2019-02-25T14:56:54.741Z,38.90
2019-02-25T14:59:41.533Z,39.20
2019-02-25T15:02:26.689Z,39.50
2019-02-25T15:05:13.041Z,38.60
2019-02-25T15:07:58.749Z,38.80
2019-02-25T15:10:43.982Z,39.00
2019-02-25T15:13:30.337Z,39.10
2019-02-25T15:16:16.874Z,38.50
2019-02-25T15:19:02.230Z,39.20
2019-02-25T15:21:47.508Z,40.70
2019-02-25T15:24:34.210Z,40.40
2019-02-25T15:27:19.694Z,40.20
2019-02-25T15:30:18.667Z,39.10
2019-02-25T15:33:04.759Z,38.90
2019-02-25T15:35:49.990Z,40.40
2019-02-25T15:38:36.952Z,39.80
2019-02-25T15:41:22.129Z,39.60
2019-02-25T15:44:08.995Z,39.10
2019-02-25T15:46:54.993Z,39.70
2019-02-25T15:49:40.669Z,40.20
2019-02-25T15:52:27.572Z,40.20
2019-02-25T15:55:16.809Z,40.00
2019-02-25T15:58:01.883Z,40.30
2019-02-25T16:00:47.175Z,40.80
2019-02-25T16:03:34.445Z,41.20
2019-02-25T16:06:19.438Z,41.60
2019-02-25T16:09:06.285Z,42.90
2019-02-25T16:11:52.500Z,43.20
2019-02-25T16:14:39.375Z,43.30
2019-02-25T16:17:24.493Z,44.20
2019-02-25T16:20:17.549Z,43.50
2019-02-25T16:23:05.856Z,44.40
2019-02-25T16:25:53.169Z,44.60
2019-02-25T16:28:39.912Z,44.40
2019-02-25T16:31:26.444Z,44.80
2019-02-25T16:34:14.642Z,45.40
2019-02-25T16:37:00.392Z,46.30
2019-02-25T16:39:46.166Z,46.40
2019-02-25T16:42:32.371Z,47.00
2019-02-25T16:45:21.643Z,46.00
2019-02-25T16:48:06.856Z,46.90
2019-02-25T16:50:51.955Z,48.10
2019-02-25T16:53:39.055Z,48.30
2019-02-25T16:56:24.201Z,49.00
2019-02-25T16:59:11.030Z,49.90
2019-02-25T17:01:58.069Z,50.30
2019-02-25T17:04:43.290Z,50.80
2019-02-25T17:07:28.226Z,51.80
2019-02-25T17:10:24.119Z,52.30
2019-02-25T17:13:08.107Z,53.80
2019-02-25T17:15:54.248Z,54.10
2019-02-25T17:18:39.438Z,54.30
2019-02-25T17:21:26.551Z,54.50
2019-02-25T17:24:12.016Z,54.80
2019-02-25T17:26:56.988Z,55.30
2019-02-25T17:29:42.874Z,55.30
2019-02-25T17:32:27.922Z,55.90
2019-02-25T17:35:15.203Z,56.00
2019-02-25T17:38:01.284Z,56.70
2019-02-25T17:40:47.381Z,58.10
2019-02-25T17:43:34.245Z,58.60
2019-02-25T17:46:19.903Z,59.00
2019-02-25T17:49:07.862Z,58.80
2019-02-25T17:51:55.408Z,59.10
2019-02-25T17:54:40.520Z,59.70
2019-02-25T17:57:27.350Z,60.00
2019-02-25T18:00:25.589Z,60.00
2019-02-25T18:03:12.962Z,60.70
2019-02-25T18:06:00.586Z,61.00
2019-02-25T18:08:46.313Z,61.50
2019-02-25T18:11:31.426Z,61.90
2019-02-25T18:14:19.712Z,62.30
2019-02-25T18:17:05.995Z,62.10
2019-02-25T18:19:54.407Z,62.70
2019-02-25T18:22:39.986Z,62.80
2019-02-25T18:25:25.414Z,64.00
2019-02-25T18:28:12.663Z,64.50
2019-02-25T18:30:59.643Z,65.00
2019-02-25T18:33:46.818Z,66.10
2019-02-25T18:36:33.198Z,67.40
2019-02-25T18:39:18.583Z,67.40
2019-02-25T18:42:04.033Z,68.90
2019-02-25T18:44:51.119Z,68.00
2019-02-25T18:47:36.648Z,67.20
2019-02-25T18:50:24.132Z,68.10
2019-02-25T18:53:10.805Z,69.30
2019-02-25T18:55:56.762Z,69.60
2019-02-25T18:58:42.370Z,69.80
2019-02-25T19:01:28.363Z,69.50
2019-02-25T19:04:15.428Z,69.20
2019-02-25T19:07:01.957Z,70.70
2019-02-25T19:09:49.346Z,71.10
2019-02-25T19:12:35.781Z,70.50
2019-02-25T19:15:21.011Z,71.50
2019-02-25T19:18:06.934Z,72.00
2019-02-25T19:20:53.300Z,72.80
2019-02-25T19:23:39.558Z,73.30
2019-02-25T19:26:25.470Z,73.60
2019-02-25T19:29:12.510Z,73.50
2019-02-25T19:32:00.618Z,74.60
2019-02-25T19:34:44.666Z,75.60
2019-02-25T19:37:32.926Z,76.70
2019-02-25T19:40:21.860Z,77.90
2019-02-25T19:43:07.360Z,78.10
2019-02-25T19:45:52.759Z,78.90
2019-02-25T19:48:38.739Z,79.60
2019-02-25T19:51:25.345Z,80.00
2019-02-25T19:54:11.663Z,81.10
2019-02-25T19:56:58.302Z,82.70
2019-02-25T19:59:46.262Z,83.00
2019-02-25T20:02:32.237Z,83.40
2019-02-25T20:05:19.362Z,83.20
2019-02-25T20:08:05.316Z,83.40
2019-02-25T20:10:54.343Z,84.90
2019-02-25T20:13:38.301Z,86.10
2019-02-25T20:16:28.099Z,87.30
2019-02-25T20:19:12.615Z,87.80
2019-02-25T20:21:57.965Z,89.60
2019-02-25T20:24:45.986Z,90.30
2019-02-25T20:27:30.324Z,90.00
2019-02-25T20:30:19.652Z,90.60
2019-02-25T20:33:06.825Z,90.90
2019-02-25T20:35:55.821Z,91.40
2019-02-25T20:38:40.259Z,91.00
2019-02-25T20:41:26.733Z,91.20
2019-02-25T20:44:13.741Z,91.70
2019-02-25T20:47:00.128Z,92.30
2019-02-25T20:49:49.293Z,92.30
2019-02-25T20:52:34.059Z,92.90
2019-02-25T20:55:20.858Z,93.00
2019-02-25T20:58:05.938Z,93.30
2019-02-25T21:00:51.343Z,93.60
2019-02-25T21:03:36.583Z,93.70
2019-02-25T21:06:21.947Z,94.10
2019-02-25T21:09:08.912Z,94.20
2019-02-25T21:11:54.128Z,94.60
2019-02-25T21:14:41.133Z,94.90
2019-02-25T21:17:28.441Z,95.70
2019-02-25T21:20:14.829Z,96.20
2019-02-25T21:23:04.857Z,96.50
2019-02-25T21:25:46.744Z,96.90
2019-02-25T21:28:33.696Z,97.50
2019-02-25T21:31:21.373Z,97.70
2019-02-25T21:34:06.603Z,98.00
2019-02-25T21:36:54.216Z,98.00
2019-02-25T21:39:40.787Z,97.80
2019-02-25T21:42:26.864Z,98.00
2019-02-25T21:45:18.035Z,98.20
2019-02-25T21:48:04.778Z,98.30
2019-02-25T21:50:49.812Z,98.20
2019-02-25T21:53:35.096Z,97.90
2019-02-25T21:56:22.277Z,98.00
2019-02-25T21:59:08.354Z,98.00
2019-02-25T22:01:55.729Z,98.60
2019-02-25T22:04:43.074Z,98.60
2019-02-25T22:07:29.456Z,98.90
2019-02-25T22:10:16.132Z,98.30
2019-02-25T22:13:04.375Z,98.70
2019-02-25T22:15:48.775Z,99.20
2019-02-25T22:18:36.361Z,99.00
2019-02-25T22:21:21.574Z,99.20
2019-02-25T22:24:08.087Z,98.90
2019-02-25T22:26:54.252Z,99.10
2019-02-25T22:29:41.272Z,99.20
2019-02-25T22:32:27.491Z,98.60
2019-02-25T22:35:14.983Z,98.80
2019-02-25T22:38:02.329Z,99.10
2019-02-25T22:40:48.105Z,99.50
2019-02-25T22:43:33.320Z,99.50
2019-02-25T22:46:20.780Z,99.50
2019-02-25T22:49:07.253Z,99.50
2019-02-25T22:51:55.799Z,99.70
2019-02-25T22:54:41.757Z,99.60
2019-02-25T22:57:27.864Z,99.90
2019-02-25T23:00:49.078Z,99.90
2019-02-25T23:03:34.521Z,99.90
2019-02-25T23:06:23.645Z,99.90
2019-02-25T23:09:12.234Z,99.90
2019-02-25T23:11:56.594Z,99.60
2019-02-25T23:14:42.877Z,99.70
2019-02-25T23:17:31.110Z,99.90
2019-02-25T23:20:15.023Z,99.90
2019-02-25T23:23:04.113Z,99.90
2019-02-25T23:25:49.107Z,99.90
2019-02-25T23:28:34.021Z,99.90
2019-02-25T23:31:18.681Z,99.90
2019-02-25T23:34:05.614Z,99.90
2019-02-25T23:36:51.661Z,99.90
2019-02-25T23:39:38.401Z,99.90
2019-02-25T23:42:25.847Z,99.90
2019-02-25T23:45:12.980Z,99.90
2019-02-25T23:48:00.209Z,99.90
2019-02-25T23:50:47.960Z,99.90
2019-02-25T23:53:35.128Z,99.90
2019-02-25T23:56:22.733Z,99.90
2019-02-25T23:59:10.733Z,99.90
